sensor_id;sensor_type;location;lat;lon;timestamp;pressure;altitude;pressure_sealevel;temperature;humidity
36222;BME280;22266;52.340;4.962;2022-08-21T00:00:22;101654.72;;;19.18;60.01
36222;BME280;22266;52.340;4.962;2022-08-21T00:02:56;101652.00;;;19.18;60.00
36222;BME280;22266;52.340;4.962;2022-08-21T00:05:24;101652.81;;;19.19;59.85
36222;BME280;22266;52.340;4.962;2022-08-21T00:07:51;101654.97;;;19.17;60.13
36222;BME280;22266;52.340;4.962;2022-08-21T00:10:18;101650.56;;;19.16;60.11
36222;BME280;22266;52.340;4.962;2022-08-21T00:12:45;101643.69;;;19.13;60.06
36222;BME280;22266;52.340;4.962;2022-08-21T00:15:16;101646.63;;;19.12;60.17
36222;BME280;22266;52.340;4.962;2022-08-21T00:17:43;101638.69;;;19.10;60.41
36222;BME280;22266;52.340;4.962;2022-08-21T00:20:12;101634.28;;;19.09;60.32
36222;BME280;22266;52.340;4.962;2022-08-21T00:22:39;101635.56;;;19.07;60.61
36222;BME280;22266;52.340;4.962;2022-08-21T00:25:06;101635.44;;;19.01;60.66
36222;BME280;22266;52.340;4.962;2022-08-21T00:27:34;101632.97;;;19.00;60.94
36222;BME280;22266;52.340;4.962;2022-08-21T00:30:00;101631.75;;;18.96;61.05
36222;BME280;22266;52.340;4.962;2022-08-21T00:32:27;101639.69;;;18.97;61.30
36222;BME280;22266;52.340;4.962;2022-08-21T00:34:54;101632.09;;;18.99;61.46
36222;BME280;22266;52.340;4.962;2022-08-21T00:37:21;101627.25;;;19.01;61.27
36222;BME280;22266;52.340;4.962;2022-08-21T00:39:49;101628.31;;;19.00;61.50
36222;BME280;22266;52.340;4.962;2022-08-21T00:42:17;101620.34;;;18.99;61.72
36222;BME280;22266;52.340;4.962;2022-08-21T00:44:47;101620.16;;;19.00;61.65
36222;BME280;22266;52.340;4.962;2022-08-21T00:47:14;101627.50;;;19.00;61.79
36222;BME280;22266;52.340;4.962;2022-08-21T00:49:40;101626.88;;;18.98;61.73
36222;BME280;22266;52.340;4.962;2022-08-21T00:52:14;101633.41;;;18.97;61.86
36222;BME280;22266;52.340;4.962;2022-08-21T00:54:42;101638.50;;;18.93;62.36
36222;BME280;22266;52.340;4.962;2022-08-21T00:57:20;101635.16;;;18.91;62.32
36222;BME280;22266;52.340;4.962;2022-08-21T00:59:51;101631.91;;;18.83;62.63
36222;BME280;22266;52.340;4.962;2022-08-21T01:02:20;101630.50;;;18.80;62.75
36222;BME280;22266;52.340;4.962;2022-08-21T01:04:47;101636.53;;;18.82;62.91
36222;BME280;22266;52.340;4.962;2022-08-21T01:07:14;101628.13;;;18.84;62.69
36222;BME280;22266;52.340;4.962;2022-08-21T01:09:41;101621.81;;;18.83;62.98
36222;BME280;22266;52.340;4.962;2022-08-21T01:12:08;101632.97;;;18.82;63.13
36222;BME280;22266;52.340;4.962;2022-08-21T01:14:36;101626.06;;;18.79;63.07
36222;BME280;22266;52.340;4.962;2022-08-21T01:17:03;101629.28;;;18.76;63.48
36222;BME280;22266;52.340;4.962;2022-08-21T01:19:30;101634.75;;;18.76;63.45
36222;BME280;22266;52.340;4.962;2022-08-21T01:21:57;101631.41;;;18.74;63.33
36222;BME280;22266;52.340;4.962;2022-08-21T01:24:26;101634.94;;;18.74;63.46
36222;BME280;22266;52.340;4.962;2022-08-21T01:26:53;101635.63;;;18.70;63.67
36222;BME280;22266;52.340;4.962;2022-08-21T01:32:10;101636.03;;;18.73;63.93
36222;BME280;22266;52.340;4.962;2022-08-21T01:34:40;101633.75;;;18.70;63.98
36222;BME280;22266;52.340;4.962;2022-08-21T01:37:08;101627.00;;;18.73;63.90
36222;BME280;22266;52.340;4.962;2022-08-21T01:39:36;101633.53;;;18.72;64.24
36222;BME280;22266;52.340;4.962;2022-08-21T01:42:03;101630.81;;;18.72;64.18
36222;BME280;22266;52.340;4.962;2022-08-21T01:44:31;101632.69;;;18.71;63.92
36222;BME280;22266;52.340;4.962;2022-08-21T01:46:59;101629.78;;;18.66;64.10
36222;BME280;22266;52.340;4.962;2022-08-21T01:49:27;101627.88;;;18.67;64.15
36222;BME280;22266;52.340;4.962;2022-08-21T01:51:54;101622.03;;;18.63;64.26
36222;BME280;22266;52.340;4.962;2022-08-21T01:54:20;101627.16;;;18.60;64.46
36222;BME280;22266;52.340;4.962;2022-08-21T01:56:50;101621.06;;;18.58;64.88
36222;BME280;22266;52.340;4.962;2022-08-21T01:59:16;101621.91;;;18.58;64.74
36222;BME280;22266;52.340;4.962;2022-08-21T02:01:43;101624.88;;;18.57;64.84
36222;BME280;22266;52.340;4.962;2022-08-21T02:04:10;101620.25;;;18.57;64.99
36222;BME280;22266;52.340;4.962;2022-08-21T02:06:37;101609.09;;;18.59;65.02
36222;BME280;22266;52.340;4.962;2022-08-21T02:09:06;101603.66;;;18.59;64.89
36222;BME280;22266;52.340;4.962;2022-08-21T02:11:33;101601.16;;;18.57;64.99
36222;BME280;22266;52.340;4.962;2022-08-21T02:14:00;101598.28;;;18.52;65.17
36222;BME280;22266;52.340;4.962;2022-08-21T02:16:27;101601.03;;;18.52;65.11
36222;BME280;22266;52.340;4.962;2022-08-21T02:18:58;101601.72;;;18.47;65.25
36222;BME280;22266;52.340;4.962;2022-08-21T02:21:25;101600.25;;;18.45;65.40
36222;BME280;22266;52.340;4.962;2022-08-21T02:23:51;101603.81;;;18.45;65.36
36222;BME280;22266;52.340;4.962;2022-08-21T02:26:18;101598.38;;;18.45;65.48
36222;BME280;22266;52.340;4.962;2022-08-21T02:28:45;101597.28;;;18.46;65.73
36222;BME280;22266;52.340;4.962;2022-08-21T02:31:11;101597.09;;;18.48;65.66
36222;BME280;22266;52.340;4.962;2022-08-21T02:33:38;101598.75;;;18.49;65.39
36222;BME280;22266;52.340;4.962;2022-08-21T02:36:07;101607.50;;;18.51;65.59
36222;BME280;22266;52.340;4.962;2022-08-21T02:38:36;101599.56;;;18.49;65.49
36222;BME280;22266;52.340;4.962;2022-08-21T02:41:13;101598.97;;;18.47;65.48
36222;BME280;22266;52.340;4.962;2022-08-21T02:43:41;101599.56;;;18.49;65.52
36222;BME280;22266;52.340;4.962;2022-08-21T02:46:10;101595.63;;;18.45;65.57
36222;BME280;22266;52.340;4.962;2022-08-21T02:48:38;101598.38;;;18.45;65.92
36222;BME280;22266;52.340;4.962;2022-08-21T02:51:08;101589.34;;;18.45;65.72
36222;BME280;22266;52.340;4.962;2022-08-21T02:53:35;101595.06;;;18.43;65.63
36222;BME280;22266;52.340;4.962;2022-08-21T02:56:04;101592.31;;;18.43;65.80
36222;BME280;22266;52.340;4.962;2022-08-21T02:58:35;101594.44;;;18.41;65.71
36222;BME280;22266;52.340;4.962;2022-08-21T03:01:03;101589.22;;;18.40;65.67
36222;BME280;22266;52.340;4.962;2022-08-21T03:03:30;101588.00;;;18.36;65.77
36222;BME280;22266;52.340;4.962;2022-08-21T03:05:56;101588.22;;;18.34;65.77
36222;BME280;22266;52.340;4.962;2022-08-21T03:08:23;101577.78;;;18.31;65.58
36222;BME280;22266;52.340;4.962;2022-08-21T03:10:53;101583.44;;;18.29;66.02
36222;BME280;22266;52.340;4.962;2022-08-21T03:13:20;101578.00;;;18.29;66.05
36222;BME280;22266;52.340;4.962;2022-08-21T03:15:48;101572.56;;;18.29;65.71
36222;BME280;22266;52.340;4.962;2022-08-21T03:18:15;101566.03;;;18.31;65.81
36222;BME280;22266;52.340;4.962;2022-08-21T03:20:43;101568.16;;;18.28;66.05
36222;BME280;22266;52.340;4.962;2022-08-21T03:23:12;101574.06;;;18.25;66.07
36222;BME280;22266;52.340;4.962;2022-08-21T03:25:44;101565.31;;;18.23;65.95
36222;BME280;22266;52.340;4.962;2022-08-21T03:28:15;101570.38;;;18.20;65.98
36222;BME280;22266;52.340;4.962;2022-08-21T03:30:43;101563.47;;;18.17;66.47
36222;BME280;22266;52.340;4.962;2022-08-21T03:33:10;101550.91;;;18.16;66.46
36222;BME280;22266;52.340;4.962;2022-08-21T03:35:42;101554.91;;;18.14;66.39
36222;BME280;22266;52.340;4.962;2022-08-21T03:38:09;101555.97;;;18.13;66.27
36222;BME280;22266;52.340;4.962;2022-08-21T03:40:36;101555.16;;;18.12;66.26
36222;BME280;22266;52.340;4.962;2022-08-21T03:43:02;101554.31;;;18.12;66.69
36222;BME280;22266;52.340;4.962;2022-08-21T03:45:29;101560.59;;;18.12;66.40
36222;BME280;22266;52.340;4.962;2022-08-21T03:48:01;101561.44;;;18.13;66.42
36222;BME280;22266;52.340;4.962;2022-08-21T03:50:33;101558.09;;;18.11;66.13
36222;BME280;22266;52.340;4.962;2022-08-21T03:53:00;101558.56;;;18.08;66.20
36222;BME280;22266;52.340;4.962;2022-08-21T03:55:27;101557.09;;;18.05;66.28
36222;BME280;22266;52.340;4.962;2022-08-21T03:57:53;101552.09;;;18.02;66.69
36222;BME280;22266;52.340;4.962;2022-08-21T04:00:20;101554.44;;;17.98;66.68
36222;BME280;22266;52.340;4.962;2022-08-21T04:02:47;101552.78;;;17.97;67.12
36222;BME280;22266;52.340;4.962;2022-08-21T04:05:15;101548.63;;;17.95;66.94
36222;BME280;22266;52.340;4.962;2022-08-21T04:07:55;101555.50;;;17.97;67.06
36222;BME280;22266;52.340;4.962;2022-08-21T04:10:22;101552.78;;;17.97;67.52
36222;BME280;22266;52.340;4.962;2022-08-21T04:12:52;101558.84;;;17.99;67.06
36222;BME280;22266;52.340;4.962;2022-08-21T04:15:19;101557.16;;;17.98;67.19
36222;BME280;22266;52.340;4.962;2022-08-21T04:17:46;101562.84;;;17.97;66.89
36222;BME280;22266;52.340;4.962;2022-08-21T04:20:13;101556.81;;;17.95;67.16
36222;BME280;22266;52.340;4.962;2022-08-21T04:22:39;101566.25;;;17.92;66.94
36222;BME280;22266;52.340;4.962;2022-08-21T04:25:06;101563.97;;;17.89;67.20
36222;BME280;22266;52.340;4.962;2022-08-21T04:27:34;101572.16;;;17.89;67.16
36222;BME280;22266;52.340;4.962;2022-08-21T04:30:01;101561.69;;;17.86;67.39
36222;BME280;22266;52.340;4.962;2022-08-21T04:32:27;101560.28;;;17.84;67.25
36222;BME280;22266;52.340;4.962;2022-08-21T04:35:03;101570.78;;;17.80;67.46
36222;BME280;22266;52.340;4.962;2022-08-21T04:37:30;101570.38;;;17.76;67.53
36222;BME280;22266;52.340;4.962;2022-08-21T04:39:57;101574.19;;;17.75;67.46
36222;BME280;22266;52.340;4.962;2022-08-21T04:42:25;101571.03;;;17.72;67.02
36222;BME280;22266;52.340;4.962;2022-08-21T04:44:52;101570.06;;;17.66;67.18
36222;BME280;22266;52.340;4.962;2022-08-21T04:47:18;101581.16;;;17.65;67.35
36222;BME280;22266;52.340;4.962;2022-08-21T04:49:45;101572.78;;;17.66;66.94
36222;BME280;22266;52.340;4.962;2022-08-21T04:52:13;101578.66;;;17.63;67.50
36222;BME280;22266;52.340;4.962;2022-08-21T04:54:44;101578.88;;;17.62;67.03
36222;BME280;22266;52.340;4.962;2022-08-21T04:57:13;101579.50;;;17.64;67.18
36222;BME280;22266;52.340;4.962;2022-08-21T04:59:46;101580.31;;;17.64;67.10
36222;BME280;22266;52.340;4.962;2022-08-21T05:02:13;101575.94;;;17.63;66.91
36222;BME280;22266;52.340;4.962;2022-08-21T05:04:52;101580.75;;;17.61;67.01
36222;BME280;22266;52.340;4.962;2022-08-21T05:07:24;101584.31;;;17.62;67.11
36222;BME280;22266;52.340;4.962;2022-08-21T05:10:08;101581.38;;;17.63;67.05
36222;BME280;22266;52.340;4.962;2022-08-21T05:12:35;101571.53;;;17.62;67.13
36222;BME280;22266;52.340;4.962;2022-08-21T05:15:03;101578.03;;;17.61;66.91
36222;BME280;22266;52.340;4.962;2022-08-21T05:17:29;101572.38;;;17.63;67.05
36222;BME280;22266;52.340;4.962;2022-08-21T05:19:56;101579.88;;;17.67;67.03
36222;BME280;22266;52.340;4.962;2022-08-21T05:22:22;101576.53;;;17.65;66.87
36222;BME280;22266;52.340;4.962;2022-08-21T05:24:51;101582.59;;;17.67;66.87
36222;BME280;22266;52.340;4.962;2022-08-21T05:27:17;101581.31;;;17.70;67.10
36222;BME280;22266;52.340;4.962;2022-08-21T05:29:45;101587.38;;;17.72;66.88
36222;BME280;22266;52.340;4.962;2022-08-21T05:32:12;101588.44;;;17.71;67.16
36222;BME280;22266;52.340;4.962;2022-08-21T05:34:41;101587.38;;;17.72;67.17
36222;BME280;22266;52.340;4.962;2022-08-21T05:37:10;101600.59;;;17.68;67.18
36222;BME280;22266;52.340;4.962;2022-08-21T05:39:37;101590.53;;;17.69;67.20
36222;BME280;22266;52.340;4.962;2022-08-21T05:42:23;101590.34;;;17.70;67.18
36222;BME280;22266;52.340;4.962;2022-08-21T05:44:50;101592.44;;;17.68;67.50
36222;BME280;22266;52.340;4.962;2022-08-21T05:47:17;101593.50;;;17.67;67.29
36222;BME280;22266;52.340;4.962;2022-08-21T05:49:44;101601.22;;;17.70;67.39
36222;BME280;22266;52.340;4.962;2022-08-21T05:52:10;101594.91;;;17.70;67.12
36222;BME280;22266;52.340;4.962;2022-08-21T05:54:37;101591.16;;;17.71;67.39
36222;BME280;22266;52.340;4.962;2022-08-21T05:57:03;101599.78;;;17.68;67.60
36222;BME280;22266;52.340;4.962;2022-08-21T05:59:30;101591.59;;;17.68;67.82
36222;BME280;22266;52.340;4.962;2022-08-21T06:01:56;101593.06;;;17.70;67.82
36222;BME280;22266;52.340;4.962;2022-08-21T06:04:29;101595.72;;;17.77;67.80
36222;BME280;22266;52.340;4.962;2022-08-21T06:06:55;101585.66;;;17.77;68.05
36222;BME280;22266;52.340;4.962;2022-08-21T06:09:22;101592.34;;;17.82;67.57
36222;BME280;22266;52.340;4.962;2022-08-21T06:11:48;101584.78;;;17.84;67.77
36222;BME280;22266;52.340;4.962;2022-08-21T06:14:15;101586.84;;;17.88;67.62
36222;BME280;22266;52.340;4.962;2022-08-21T06:16:42;101592.88;;;17.90;67.81
36222;BME280;22266;52.340;4.962;2022-08-21T06:19:08;101586.44;;;17.85;67.81
36222;BME280;22266;52.340;4.962;2022-08-21T06:21:35;101585.75;;;17.89;68.00
36222;BME280;22266;52.340;4.962;2022-08-21T06:24:01;101593.41;;;17.81;68.25
36222;BME280;22266;52.340;4.962;2022-08-21T06:26:28;101597.84;;;17.75;68.62
36222;BME280;22266;52.340;4.962;2022-08-21T06:28:55;101586.53;;;17.71;68.71
36222;BME280;22266;52.340;4.962;2022-08-21T06:31:23;101591.59;;;17.74;68.81
36222;BME280;22266;52.340;4.962;2022-08-21T06:33:51;101597.19;;;17.79;68.63
36222;BME280;22266;52.340;4.962;2022-08-21T06:36:19;101590.22;;;17.84;69.26
36222;BME280;22266;52.340;4.962;2022-08-21T06:38:47;101585.38;;;17.86;69.32
36222;BME280;22266;52.340;4.962;2022-08-21T06:41:18;101581.38;;;17.88;69.06
36222;BME280;22266;52.340;4.962;2022-08-21T06:43:53;101584.69;;;17.90;69.22
36222;BME280;22266;52.340;4.962;2022-08-21T06:46:19;101585.31;;;17.92;69.39
36222;BME280;22266;52.340;4.962;2022-08-21T06:48:46;101587.81;;;17.94;69.38
36222;BME280;22266;52.340;4.962;2022-08-21T06:51:13;101593.44;;;17.99;69.72
36222;BME280;22266;52.340;4.962;2022-08-21T06:53:39;101588.44;;;17.96;69.68
36222;BME280;22266;52.340;4.962;2022-08-21T06:56:05;101588.06;;;17.92;70.16
36222;BME280;22266;52.340;4.962;2022-08-21T06:58:32;101579.34;;;18.02;70.41
36222;BME280;22266;52.340;4.962;2022-08-21T07:00:58;101574.66;;;18.09;70.46
36222;BME280;22266;52.340;4.962;2022-08-21T07:03:32;101581.31;;;18.13;70.06
36222;BME280;22266;52.340;4.962;2022-08-21T07:05:59;101585.03;;;18.19;70.43
36222;BME280;22266;52.340;4.962;2022-08-21T07:08:27;101583.50;;;18.23;70.11
36222;BME280;22266;52.340;4.962;2022-08-21T07:10:56;101584.28;;;18.30;70.04
36222;BME280;22266;52.340;4.962;2022-08-21T07:13:23;101580.66;;;18.36;70.47
36222;BME280;22266;52.340;4.962;2022-08-21T07:15:49;101585.81;;;18.44;70.27
36222;BME280;22266;52.340;4.962;2022-08-21T07:18:16;101592.09;;;18.45;70.35
36222;BME280;22266;52.340;4.962;2022-08-21T07:20:43;101592.09;;;18.45;70.74
36222;BME280;22266;52.340;4.962;2022-08-21T07:23:12;101587.84;;;18.49;70.35
36222;BME280;22266;52.340;4.962;2022-08-21T07:25:42;101591.53;;;18.54;70.59
36222;BME280;22266;52.340;4.962;2022-08-21T07:28:08;101582.91;;;18.58;70.27
36222;BME280;22266;52.340;4.962;2022-08-21T07:30:35;101587.22;;;18.65;70.17
36222;BME280;22266;52.340;4.962;2022-08-21T07:33:01;101584.88;;;18.69;70.30
36222;BME280;22266;52.340;4.962;2022-08-21T07:35:28;101584.78;;;18.75;70.10
36222;BME280;22266;52.340;4.962;2022-08-21T07:37:54;101589.34;;;18.82;69.85
36222;BME280;22266;52.340;4.962;2022-08-21T07:40:21;101595.53;;;18.89;70.03
36222;BME280;22266;52.340;4.962;2022-08-21T07:42:48;101597.44;;;18.88;70.04
36222;BME280;22266;52.340;4.962;2022-08-21T07:45:20;101599.47;;;18.93;70.02
36222;BME280;22266;52.340;4.962;2022-08-21T07:47:48;101601.50;;;18.97;69.94
36222;BME280;22266;52.340;4.962;2022-08-21T07:50:20;101601.88;;;19.01;70.16
36222;BME280;22266;52.340;4.962;2022-08-21T07:52:47;101590.13;;;19.00;70.16
36222;BME280;22266;52.340;4.962;2022-08-21T07:55:17;101588.34;;;19.06;69.92
36222;BME280;22266;52.340;4.962;2022-08-21T07:57:44;101591.22;;;19.11;69.79
36222;BME280;22266;52.340;4.962;2022-08-21T08:00:14;101587.44;;;19.12;69.95
36222;BME280;22266;52.340;4.962;2022-08-21T08:02:45;101593.03;;;19.17;70.07
36222;BME280;22266;52.340;4.962;2022-08-21T08:05:12;101594.56;;;19.13;70.10
36222;BME280;22266;52.340;4.962;2022-08-21T08:07:39;101592.91;;;19.12;70.35
36222;BME280;22266;52.340;4.962;2022-08-21T08:10:07;101599.22;;;19.24;70.47
36222;BME280;22266;52.340;4.962;2022-08-21T08:12:35;101595.09;;;19.34;70.17
36222;BME280;22266;52.340;4.962;2022-08-21T08:15:05;101586.09;;;19.45;69.73
36222;BME280;22266;52.340;4.962;2022-08-21T08:17:32;101593.78;;;19.48;69.72
36222;BME280;22266;52.340;4.962;2022-08-21T08:19:59;101598.53;;;19.52;69.71
36222;BME280;22266;52.340;4.962;2022-08-21T08:22:28;101590.50;;;19.58;69.63
36222;BME280;22266;52.340;4.962;2022-08-21T08:24:55;101598.44;;;19.59;69.56
36222;BME280;22266;52.340;4.962;2022-08-21T08:27:22;101593.38;;;19.63;69.54
36222;BME280;22266;52.340;4.962;2022-08-21T08:29:49;101588.34;;;19.60;69.37
36222;BME280;22266;52.340;4.962;2022-08-21T08:32:15;101589.56;;;19.64;69.33
36222;BME280;22266;52.340;4.962;2022-08-21T08:34:42;101584.81;;;19.71;69.23
36222;BME280;22266;52.340;4.962;2022-08-21T08:37:10;101584.22;;;19.81;69.02
36222;BME280;22266;52.340;4.962;2022-08-21T08:39:37;101584.22;;;19.92;68.87
36222;BME280;22266;52.340;4.962;2022-08-21T08:42:08;101586.75;;;19.94;68.83
36222;BME280;22266;52.340;4.962;2022-08-21T08:45:06;101589.22;;;19.95;68.59
36222;BME280;22266;52.340;4.962;2022-08-21T08:47:37;101589.69;;;20.04;68.38
36222;BME280;22266;52.340;4.962;2022-08-21T08:50:12;101580.28;;;20.12;68.32
36222;BME280;22266;52.340;4.962;2022-08-21T08:52:48;101567.44;;;20.12;68.07
36222;BME280;22266;52.340;4.962;2022-08-21T08:55:23;101569.72;;;20.15;68.05
36222;BME280;22266;52.340;4.962;2022-08-21T08:57:53;101571.38;;;20.16;68.15
36222;BME280;22266;52.340;4.962;2022-08-21T09:00:22;101573.88;;;20.18;67.91
36222;BME280;22266;52.340;4.962;2022-08-21T09:02:52;101572.44;;;20.15;67.98
36222;BME280;22266;52.340;4.962;2022-08-21T09:05:36;101584.56;;;20.08;67.89
36222;BME280;22266;52.340;4.962;2022-08-21T09:08:20;101576.38;;;20.08;67.64
36222;BME280;22266;52.340;4.962;2022-08-21T09:11:12;101584.81;;;20.18;67.41
36222;BME280;22266;52.340;4.962;2022-08-21T09:14:09;101582.28;;;20.28;67.10
36222;BME280;22266;52.340;4.962;2022-08-21T09:22:03;101583.34;;;20.39;66.20
36222;BME280;22266;52.340;4.962;2022-08-21T09:27:34;101584.44;;;20.38;66.06
36222;BME280;22266;52.340;4.962;2022-08-21T09:30:04;101578.22;;;20.42;66.14
36222;BME280;22266;52.340;4.962;2022-08-21T09:32:34;101588.66;;;20.45;65.83
36222;BME280;22266;52.340;4.962;2022-08-21T09:35:17;101584.28;;;20.44;65.84
36222;BME280;22266;52.340;4.962;2022-08-21T09:37:53;101586.19;;;20.56;65.27
36222;BME280;22266;52.340;4.962;2022-08-21T09:42:56;101578.91;;;20.61;64.09
36222;BME280;22266;52.340;4.962;2022-08-21T09:45:23;101581.25;;;20.69;63.60
36222;BME280;22266;52.340;4.962;2022-08-21T09:47:49;101575.63;;;20.76;63.49
36222;BME280;22266;52.340;4.962;2022-08-21T09:50:25;101580.97;;;20.83;63.47
36222;BME280;22266;52.340;4.962;2022-08-21T09:52:57;101577.25;;;20.89;63.07
36222;BME280;22266;52.340;4.962;2022-08-21T09:55:34;101569.03;;;20.89;63.03
36222;BME280;22266;52.340;4.962;2022-08-21T09:58:33;101574.59;;;20.94;63.39
36222;BME280;22266;52.340;4.962;2022-08-21T10:01:03;101562.94;;;20.98;63.15
36222;BME280;22266;52.340;4.962;2022-08-21T10:03:31;101570.22;;;21.10;63.35
36222;BME280;22266;52.340;4.962;2022-08-21T10:06:00;101571.72;;;21.17;63.38
36222;BME280;22266;52.340;4.962;2022-08-21T10:08:36;101578.16;;;21.23;63.34
36222;BME280;22266;52.340;4.962;2022-08-21T10:11:12;101579.53;;;21.26;62.56
36222;BME280;22266;52.340;4.962;2022-08-21T10:16:35;101572.97;;;21.27;62.01
36222;BME280;22266;52.340;4.962;2022-08-21T10:22:06;101569.75;;;21.30;61.74
36222;BME280;22266;52.340;4.962;2022-08-21T10:27:37;101568.47;;;21.32;60.98
36222;BME280;22266;52.340;4.962;2022-08-21T10:30:11;101567.38;;;21.33;60.54
36222;BME280;22266;52.340;4.962;2022-08-21T10:36:13;101565.56;;;21.10;58.35
36222;BME280;22266;52.340;4.962;2022-08-21T10:38:49;101562.19;;;21.03;57.92
36222;BME280;22266;52.340;4.962;2022-08-21T10:44:37;101561.13;;;21.21;57.82
36222;BME280;22266;52.340;4.962;2022-08-21T10:47:34;101558.69;;;21.36;57.84
36222;BME280;22266;52.340;4.962;2022-08-21T10:53:01;101545.03;;;21.58;56.02
36222;BME280;22266;52.340;4.962;2022-08-21T10:55:41;101551.19;;;21.65;56.51
36222;BME280;22266;52.340;4.962;2022-08-21T10:58:12;101556.75;;;21.70;56.98
36222;BME280;22266;52.340;4.962;2022-08-21T11:00:49;101563.31;;;21.69;55.96
36222;BME280;22266;52.340;4.962;2022-08-21T11:03:39;101561.78;;;21.79;54.72
36222;BME280;22266;52.340;4.962;2022-08-21T11:06:25;101553.34;;;21.80;54.45
36222;BME280;22266;52.340;4.962;2022-08-21T11:09:04;101559.00;;;21.95;54.39
36222;BME280;22266;52.340;4.962;2022-08-21T11:11:57;101563.56;;;22.07;54.48
36222;BME280;22266;52.340;4.962;2022-08-21T11:14:58;101561.66;;;22.24;54.32
36222;BME280;22266;52.340;4.962;2022-08-21T11:17:45;101556.91;;;22.41;54.10
36222;BME280;22266;52.340;4.962;2022-08-21T11:20:29;101559.41;;;22.43;52.92
36222;BME280;22266;52.340;4.962;2022-08-21T11:23:17;101558.63;;;22.48;53.42
36222;BME280;22266;52.340;4.962;2022-08-21T11:26:17;101570.97;;;22.45;53.53
36222;BME280;22266;52.340;4.962;2022-08-21T11:29:04;101566.16;;;22.35;53.20
36222;BME280;22266;52.340;4.962;2022-08-21T11:45:26;101586.50;;;22.39;53.08
36222;BME280;22266;52.340;4.962;2022-08-21T11:50:36;101589.06;;;22.46;52.81
36222;BME280;22266;52.340;4.962;2022-08-21T11:55:47;101582.94;;;22.61;52.96
36222;BME280;22266;52.340;4.962;2022-08-21T11:58:22;101573.69;;;22.67;52.39
36222;BME280;22266;52.340;4.962;2022-08-21T12:00:55;101579.59;;;22.81;51.64
36222;BME280;22266;52.340;4.962;2022-08-21T12:03:33;101581.25;;;22.82;51.77
36222;BME280;22266;52.340;4.962;2022-08-21T12:06:13;101580.13;;;22.78;51.14
36222;BME280;22266;52.340;4.962;2022-08-21T12:08:58;101576.28;;;22.79;51.28
36222;BME280;22266;52.340;4.962;2022-08-21T12:11:26;101578.97;;;22.74;51.23
36222;BME280;22266;52.340;4.962;2022-08-21T12:16:38;101579.38;;;22.87;51.16
36222;BME280;22266;52.340;4.962;2022-08-21T12:21:52;101580.22;;;22.88;51.41
36222;BME280;22266;52.340;4.962;2022-08-21T12:26:58;101587.47;;;22.94;51.11
36222;BME280;22266;52.340;4.962;2022-08-21T12:29:28;101592.72;;;23.01;51.05
36222;BME280;22266;52.340;4.962;2022-08-21T12:31:58;101585.38;;;23.06;51.30
36222;BME280;22266;52.340;4.962;2022-08-21T12:34:33;101592.22;;;23.04;51.30
36222;BME280;22266;52.340;4.962;2022-08-21T12:39:44;101582.84;;;23.00;51.37
36222;BME280;22266;52.340;4.962;2022-08-21T12:44:48;101595.31;;;23.12;50.92
36222;BME280;22266;52.340;4.962;2022-08-21T12:49:54;101597.34;;;22.95;50.52
36222;BME280;22266;52.340;4.962;2022-08-21T12:52:32;101596.84;;;22.98;51.12
36222;BME280;22266;52.340;4.962;2022-08-21T12:55:06;101597.00;;;23.13;50.74
36222;BME280;22266;52.340;4.962;2022-08-21T12:57:36;101597.91;;;23.24;51.04
36222;BME280;22266;52.340;4.962;2022-08-21T13:00:06;101602.69;;;23.34;50.98
36222;BME280;22266;52.340;4.962;2022-08-21T13:02:38;101608.69;;;23.31;50.58
36222;BME280;22266;52.340;4.962;2022-08-21T13:05:12;101602.84;;;23.22;50.94
36222;BME280;22266;52.340;4.962;2022-08-21T13:07:44;101606.63;;;23.16;50.89
36222;BME280;22266;52.340;4.962;2022-08-21T13:10:31;101603.91;;;23.21;51.02
36222;BME280;22266;52.340;4.962;2022-08-21T13:13:02;101607.19;;;23.18;50.58
36222;BME280;22266;52.340;4.962;2022-08-21T13:15:40;101599.75;;;23.13;50.80
36222;BME280;22266;52.340;4.962;2022-08-21T13:18:24;101603.50;;;23.07;50.89
36222;BME280;22266;52.340;4.962;2022-08-21T13:20:52;101604.59;;;23.06;51.04
36222;BME280;22266;52.340;4.962;2022-08-21T13:23:30;101603.25;;;23.09;51.32
36222;BME280;22266;52.340;4.962;2022-08-21T13:25:57;101607.44;;;23.16;51.20
36222;BME280;22266;52.340;4.962;2022-08-21T13:28:33;101599.81;;;23.24;51.03
36222;BME280;22266;52.340;4.962;2022-08-21T13:31:00;101596.53;;;23.22;51.02
36222;BME280;22266;52.340;4.962;2022-08-21T13:33:30;101605.84;;;23.20;51.28
36222;BME280;22266;52.340;4.962;2022-08-21T13:36:07;101600.91;;;23.23;51.65
36222;BME280;22266;52.340;4.962;2022-08-21T13:38:36;101604.53;;;23.28;51.57
36222;BME280;22266;52.340;4.962;2022-08-21T13:41:20;101606.78;;;23.31;51.45
36222;BME280;22266;52.340;4.962;2022-08-21T13:44:15;101604.81;;;23.27;51.28
36222;BME280;22266;52.340;4.962;2022-08-21T13:46:47;101612.47;;;23.25;51.72
36222;BME280;22266;52.340;4.962;2022-08-21T13:49:28;101601.72;;;23.18;51.83
36222;BME280;22266;52.340;4.962;2022-08-21T13:51:56;101606.06;;;23.14;52.04
36222;BME280;22266;52.340;4.962;2022-08-21T13:54:27;101601.09;;;23.11;51.74
36222;BME280;22266;52.340;4.962;2022-08-21T13:56:55;101606.53;;;23.06;51.87
36222;BME280;22266;52.340;4.962;2022-08-21T13:59:39;101599.91;;;23.02;51.92
36222;BME280;22266;52.340;4.962;2022-08-21T14:02:16;101597.66;;;22.99;51.66
36222;BME280;22266;52.340;4.962;2022-08-21T14:07:24;101600.25;;;22.88;51.91
36222;BME280;22266;52.340;4.962;2022-08-21T14:09:52;101596.38;;;22.84;51.96
36222;BME280;22266;52.340;4.962;2022-08-21T14:12:29;101608.72;;;22.82;51.79
36222;BME280;22266;52.340;4.962;2022-08-21T14:15:02;101613.09;;;22.83;51.92
36222;BME280;22266;52.340;4.962;2022-08-21T14:17:37;101607.66;;;22.88;51.95